Time;durP1;ratioP1;P1;durP2;ratioP2;P2;SDS_P1;SDS_P2;PMS_P1;PMS_P2;Temp;Humidity;BMP_temperature;BMP_pressure;BME280_temperature;BME280_humidity;BME280_pressure;Samples;Min_cycle;Max_cycle;Signal;HPM_P1;HPM_P2
2022/03/24 00:01:55;;;;;;;1999.90;999.90;;;11.30;43.80;;;;;;4968769;28;20039;-80
2022/03/24 00:04:22;;;;;;;1999.90;999.90;;;11.30;43.90;;;;;;4971980;28;20495;-80
2022/03/24 00:06:48;;;;;;;1999.90;999.90;;;11.20;43.90;;;;;;4971114;28;20035;-80
2022/03/24 00:09:14;;;;;;;1999.90;999.90;;;11.20;44.00;;;;;;4971605;28;20054;-80
2022/03/24 00:11:40;;;;;;;1999.90;999.90;;;11.20;44.10;;;;;;4972210;28;20030;-80
2022/03/24 00:14:07;;;;;;;1999.90;999.90;;;11.20;44.20;;;;;;4972354;28;20038;-80
2022/03/24 00:16:33;;;;;;;1999.90;999.90;;;11.20;44.30;;;;;;4969703;28;20035;-80
2022/03/24 00:18:59;;;;;;;1999.90;999.90;;;11.10;44.30;;;;;;4970607;28;20030;-80
2022/03/24 00:21:26;;;;;;;1999.90;999.90;;;11.10;44.40;;;;;;4974155;28;20031;-80
2022/03/24 00:23:52;;;;;;;1999.90;999.90;;;11.00;44.50;;;;;;4970610;28;20034;-80
2022/03/24 00:26:18;;;;;;;1999.90;999.90;;;11.00;44.60;;;;;;4970776;28;20035;-80
2022/03/24 00:28:45;;;;;;;1999.90;999.90;;;11.00;44.80;;;;;;4970194;28;20395;-80
2022/03/24 00:31:11;;;;;;;1999.90;999.90;;;11.00;44.80;;;;;;4970769;28;20047;-80
2022/03/24 00:33:38;;;;;;;1999.90;999.90;;;10.90;44.90;;;;;;4972641;28;20388;-80
2022/03/24 00:36:10;;;;;;;1999.90;999.90;;;10.90;45.00;;;;;;4971639;28;20039;-80
2022/03/24 00:38:37;;;;;;;1999.90;999.90;;;10.90;45.10;;;;;;4973018;28;20086;-80
2022/03/24 00:41:03;;;;;;;1999.90;999.90;;;10.80;45.10;;;;;;4971894;28;20479;-80
2022/03/24 00:43:30;;;;;;;1999.90;999.90;;;10.80;45.30;;;;;;4972495;28;20037;-80
2022/03/24 00:45:57;;;;;;;1999.90;999.90;;;10.80;45.30;;;;;;4971402;28;20397;-80
2022/03/24 00:48:24;;;;;;;1999.90;999.90;;;10.70;45.40;;;;;;4972653;28;20061;-80
2022/03/24 00:50:50;;;;;;;1999.90;999.90;;;10.70;45.50;;;;;;4970686;28;20051;-80
2022/03/24 00:53:17;;;;;;;1999.90;999.90;;;10.70;45.60;;;;;;4971609;28;20023;-80
2022/03/24 00:55:43;;;;;;;1999.90;999.90;;;10.60;45.70;;;;;;4970835;28;20038;-80
2022/03/24 00:58:10;;;;;;;1999.90;999.90;;;10.60;45.80;;;;;;4972814;28;20744;-80
2022/03/24 01:00:38;;;;;;;1999.90;999.90;;;10.60;45.90;;;;;;4972649;28;20399;-80
2022/03/24 01:03:06;;;;;;;1999.90;999.90;;;10.60;46.00;;;;;;4971371;28;20058;-80
2022/03/24 01:05:34;;;;;;;1999.90;999.90;;;10.50;46.00;;;;;;4971639;28;20035;-80
2022/03/24 01:08:00;;;;;;;1999.90;999.90;;;10.50;46.10;;;;;;4971904;28;20031;-80
2022/03/24 01:10:26;;;;;;;1999.90;999.90;;;10.50;46.20;;;;;;4971281;28;20043;-80
2022/03/24 01:12:52;;;;;;;1999.90;999.90;;;10.50;46.30;;;;;;4972093;28;20031;-80
2022/03/24 01:15:20;;;;;;;1999.90;999.90;;;10.40;46.40;;;;;;4971608;28;20038;-80
2022/03/24 01:17:47;;;;;;;1999.90;999.90;;;10.40;46.50;;;;;;4969505;28;20046;-80
2022/03/24 01:20:14;;;;;;;1999.90;999.90;;;10.40;46.60;;;;;;4971799;28;20069;-80
2022/03/24 01:22:40;;;;;;;1999.90;999.90;;;10.40;46.70;;;;;;4971206;28;20411;-80
2022/03/24 01:25:07;;;;;;;1999.90;999.90;;;10.30;46.70;;;;;;4971177;28;20356;-80
2022/03/24 01:27:34;;;;;;;1999.90;999.90;;;10.30;46.80;;;;;;4973604;28;20499;-80
2022/03/24 01:30:00;;;;;;;1999.90;999.90;;;10.30;46.90;;;;;;4969609;28;20527;-80
2022/03/24 01:32:27;;;;;;;1999.90;999.90;;;10.30;47.00;;;;;;4977273;28;20030;-80
2022/03/24 01:34:53;;;;;;;1999.90;999.90;;;10.30;47.10;;;;;;4969991;28;20030;-80
2022/03/24 01:37:20;;;;;;;1999.90;999.90;;;10.20;47.10;;;;;;4976690;28;20383;-80
2022/03/24 01:39:46;;;;;;;1999.90;999.90;;;10.20;47.20;;;;;;4969531;28;20031;-80
2022/03/24 01:42:13;;;;;;;1999.90;999.90;;;10.20;47.30;;;;;;4971732;28;20027;-80
2022/03/24 01:44:39;;;;;;;1999.90;999.90;;;10.10;47.30;;;;;;4974595;28;20030;-80
2022/03/24 01:47:09;;;;;;;1999.90;999.90;;;10.10;47.40;;;;;;4968949;28;20035;-80
2022/03/24 01:49:37;;;;;;;1999.90;999.90;;;10.10;47.50;;;;;;4969714;28;20039;-80
2022/03/24 01:52:07;;;;;;;1999.90;999.90;;;10.10;47.50;;;;;;4970307;28;20051;-80
2022/03/24 01:54:33;;;;;;;1999.90;999.90;;;10.10;47.60;;;;;;4983882;28;20396;-80
2022/03/24 01:56:59;;;;;;;1999.90;999.90;;;10.10;47.70;;;;;;4954042;28;20034;-80
2022/03/24 01:59:25;;;;;;;1999.90;999.90;;;10.10;47.80;;;;;;4969763;28;20026;-80
2022/03/24 02:01:51;;;;;;;1999.90;999.90;;;10.00;47.90;;;;;;4970365;28;20045;-80
2022/03/24 02:04:19;;;;;;;1999.90;999.90;;;10.00;47.90;;;;;;4969718;28;20023;-80
2022/03/24 02:06:45;;;;;;;1999.90;999.90;;;10.00;48.10;;;;;;4954076;28;20230;-80
2022/03/24 02:09:12;;;;;;;1999.90;999.90;;;10.00;48.20;;;;;;4971399;28;20055;-80
2022/03/24 02:11:38;;;;;;;1999.90;999.90;;;9.90;48.20;;;;;;4967045;28;20026;-80
2022/03/24 02:14:04;;;;;;;1999.90;999.90;;;9.90;48.30;;;;;;4969853;28;20037;-80
2022/03/24 02:16:34;;;;;;;1999.90;999.90;;;9.80;48.40;;;;;;4966634;28;20050;-80
2022/03/24 02:19:21;;;;;;;1999.90;999.90;;;9.80;48.40;;;;;;4967203;28;20407;-80
2022/03/24 02:21:48;;;;;;;1999.90;999.90;;;9.80;48.70;;;;;;4971553;28;20034;-80
2022/03/24 02:24:16;;;;;;;1999.90;999.90;;;9.80;48.70;;;;;;4969793;28;20170;-80
2022/03/24 02:26:42;;;;;;;1999.90;999.90;;;9.70;48.70;;;;;;4969212;28;20037;-80
2022/03/24 02:29:10;;;;;;;1999.90;999.90;;;9.70;48.80;;;;;;4970428;28;20058;-80
2022/03/24 02:31:38;;;;;;;1999.90;999.90;;;9.60;48.80;;;;;;4967027;28;20031;-80
2022/03/24 02:36:52;;;;;;;1999.90;999.90;;;9.60;48.90;;;;;;4970418;28;20186;-80
2022/03/24 02:39:18;;;;;;;1999.90;999.90;;;9.50;48.90;;;;;;4969688;28;20030;-80
2022/03/24 02:41:50;;;;;;;1999.90;999.90;;;9.50;49.10;;;;;;4970499;28;20037;-80
2022/03/24 02:44:17;;;;;;;1999.90;999.90;;;9.40;49.10;;;;;;4968335;28;20019;-80
2022/03/24 02:46:47;;;;;;;1999.90;999.90;;;9.50;49.30;;;;;;4952773;28;20039;-80
2022/03/24 02:49:17;;;;;;;1999.90;999.90;;;9.40;49.20;;;;;;4954735;29;20042;-80
2022/03/24 02:51:43;;;;;;;1999.90;999.90;;;9.40;49.30;;;;;;4971458;28;20035;-80
2022/03/24 02:54:09;;;;;;;1999.90;999.90;;;9.40;49.20;;;;;;4969160;28;20038;-80
2022/03/24 02:56:42;;;;;;;1999.90;999.90;;;9.40;49.30;;;;;;4970450;28;20019;-80
2022/03/24 02:59:08;;;;;;;1999.90;999.90;;;9.40;49.30;;;;;;4952502;29;20350;-80
2022/03/24 03:01:37;;;;;;;1999.90;999.90;;;9.30;49.40;;;;;;4959993;28;20039;-80
2022/03/24 03:04:05;;;;;;;1999.90;999.90;;;9.30;49.50;;;;;;4957659;28;20053;-80
2022/03/24 03:06:33;;;;;;;1999.90;999.90;;;9.30;49.50;;;;;;4971140;28;20046;-80
2022/03/24 03:09:00;;;;;;;1999.90;999.90;;;9.20;49.60;;;;;;4966659;28;20407;-80
2022/03/24 03:11:26;;;;;;;1999.90;999.90;;;9.20;49.70;;;;;;4965118;28;20039;-80
2022/03/24 03:13:52;;;;;;;1999.90;999.90;;;9.20;49.70;;;;;;4968384;28;20026;-80
2022/03/24 03:16:18;;;;;;;1999.90;999.90;;;9.20;49.70;;;;;;4959203;28;20428;-80
2022/03/24 03:18:44;;;;;;;1999.90;999.90;;;9.20;49.70;;;;;;4974031;28;20038;-80
2022/03/24 03:21:11;;;;;;;1999.90;999.90;;;9.20;49.70;;;;;;4970527;28;20368;-80
2022/03/24 03:23:38;;;;;;;1999.90;999.90;;;9.10;49.70;;;;;;4963533;28;20039;-80
2022/03/24 03:26:11;;;;;;;1999.90;999.90;;;9.10;49.70;;;;;;4962060;28;20484;-80
2022/03/24 03:28:37;;;;;;;1999.90;999.90;;;9.10;49.80;;;;;;4970655;28;20042;-80
2022/03/24 03:31:05;;;;;;;1999.90;999.90;;;9.10;49.80;;;;;;4956654;28;20043;-80
2022/03/24 03:33:32;;;;;;;1999.90;999.90;;;9.10;49.80;;;;;;4964716;28;20061;-80
2022/03/24 03:35:58;;;;;;;1999.90;999.90;;;9.00;49.90;;;;;;4969432;28;20027;-80
2022/03/24 03:38:26;;;;;;;1999.90;999.90;;;9.00;49.90;;;;;;4972334;28;20061;-80
2022/03/24 03:40:53;;;;;;;1999.90;999.90;;;9.00;49.90;;;;;;4971521;28;20057;-80
2022/03/24 03:43:20;;;;;;;1999.90;999.90;;;9.00;50.00;;;;;;4973373;28;20031;-80
2022/03/24 03:45:46;;;;;;;1999.90;999.90;;;8.90;50.00;;;;;;4972651;28;20046;-80
2022/03/24 03:48:12;;;;;;;1999.90;999.90;;;8.90;50.70;;;;;;4973880;28;20380;-79
2022/03/24 03:50:42;;;;;;;1999.90;999.90;;;8.90;50.10;;;;;;4973174;28;20053;-80
2022/03/24 03:53:08;;;;;;;1999.90;999.90;;;8.90;50.20;;;;;;4973340;28;20411;-80
2022/03/24 03:55:37;;;;;;;1999.90;999.90;;;8.90;50.20;;;;;;4972964;28;20039;-80
2022/03/24 03:58:04;;;;;;;1999.90;999.90;;;8.80;50.30;;;;;;4971712;28;20038;-82
2022/03/24 04:03:16;;;;;;;1999.90;999.90;;;8.70;50.30;;;;;;4975496;28;20039;-81
2022/03/24 04:05:43;;;;;;;1999.90;999.90;;;8.70;50.30;;;;;;4969153;28;20489;-82
2022/03/24 04:08:10;;;;;;;1999.90;999.90;;;8.70;50.40;;;;;;4969546;28;20050;-79
2022/03/24 04:10:38;;;;;;;1999.90;999.90;;;8.60;50.50;;;;;;4971617;28;20038;-80
2022/03/24 04:13:05;;;;;;;1999.90;999.90;;;8.60;50.50;;;;;;4971196;28;20046;-79
2022/03/24 04:15:33;;;;;;;1999.90;999.90;;;8.60;50.50;;;;;;4972528;28;20047;-80
2022/03/24 04:17:59;;;;;;;1999.90;999.90;;;8.60;50.60;;;;;;4956184;28;20046;-79
2022/03/24 04:20:26;;;;;;;1999.90;999.90;;;8.60;50.60;;;;;;4970621;28;20045;-79
2022/03/24 04:22:52;;;;;;;1999.90;999.90;;;8.60;50.60;;;;;;4971717;28;20503;-80
2022/03/24 04:25:21;;;;;;;1999.90;999.90;;;8.60;50.60;;;;;;4963804;28;20039;-79
2022/03/24 04:27:48;;;;;;;1999.90;999.90;;;8.50;50.60;;;;;;4969129;28;20033;-79
2022/03/24 04:30:15;;;;;;;1999.90;999.90;;;8.50;50.60;;;;;;4972954;28;20050;-79
2022/03/24 04:32:41;;;;;;;1999.90;999.90;;;8.50;50.70;;;;;;4971638;28;20043;-80
2022/03/24 04:35:08;;;;;;;1999.90;999.90;;;8.50;50.70;;;;;;4972719;28;20475;-80
2022/03/24 04:37:35;;;;;;;1999.90;999.90;;;8.40;50.70;;;;;;4973459;28;20534;-80
2022/03/24 04:40:02;;;;;;;1999.90;999.90;;;8.40;50.70;;;;;;4972212;28;20035;-80
2022/03/24 04:42:28;;;;;;;1999.90;999.90;;;8.40;50.80;;;;;;4974419;28;20031;-80
2022/03/24 04:44:54;;;;;;;1999.90;999.90;;;8.30;50.80;;;;;;4971611;28;20047;-80
2022/03/24 04:47:20;;;;;;;1999.90;999.90;;;8.30;50.90;;;;;;4972195;28;20484;-80
2022/03/24 04:49:46;;;;;;;1999.90;999.90;;;8.30;50.90;;;;;;4972721;28;20043;-80
2022/03/24 04:52:13;;;;;;;1999.90;999.90;;;8.30;50.90;;;;;;4971692;28;20062;-80
2022/03/24 04:54:39;;;;;;;1999.90;999.90;;;8.30;51.00;;;;;;4974205;28;20463;-79
2022/03/24 04:57:05;;;;;;;1999.90;999.90;;;8.20;51.60;;;;;;4971043;28;20042;-79
2022/03/24 04:59:31;;;;;;;1999.90;999.90;;;8.20;51.00;;;;;;4969167;28;20031;-79
2022/03/24 05:01:57;;;;;;;1999.90;999.90;;;8.20;51.00;;;;;;4971010;28;20042;-80
2022/03/24 05:04:24;;;;;;;1999.90;999.90;;;8.20;51.10;;;;;;4970003;28;20498;-81
2022/03/24 05:06:50;;;;;;;1999.90;999.90;;;8.20;51.10;;;;;;4972017;28;20387;-80
2022/03/24 05:09:17;;;;;;;1999.90;999.90;;;8.20;51.20;;;;;;4972866;28;20031;-80
2022/03/24 05:11:43;;;;;;;1999.90;999.90;;;8.10;51.10;;;;;;4971789;28;20038;-80
2022/03/24 05:14:10;;;;;;;1999.90;999.90;;;8.10;51.20;;;;;;4969640;28;20035;-80
2022/03/24 05:16:36;;;;;;;1999.90;999.90;;;8.10;51.20;;;;;;4971607;28;20038;-80
2022/03/24 05:19:03;;;;;;;1999.90;999.90;;;8.10;51.30;;;;;;4972976;28;20038;-80
2022/03/24 05:21:31;;;;;;;1999.90;999.90;;;8.10;51.30;;;;;;4971916;28;20038;-82
2022/03/24 05:23:57;;;;;;;1999.90;999.90;;;8.10;51.30;;;;;;4970722;28;20051;-81
2022/03/24 05:26:24;;;;;;;1999.90;999.90;;;8.00;51.30;;;;;;4972239;28;20423;-81
2022/03/24 05:28:51;;;;;;;1999.90;999.90;;;8.00;51.30;;;;;;4971190;28;20042;-80
2022/03/24 05:31:17;;;;;;;1999.90;999.90;;;8.00;51.40;;;;;;4971414;28;20055;-80
2022/03/24 05:33:43;;;;;;;1999.90;999.90;;;8.00;51.40;;;;;;4973778;28;20034;-80
2022/03/24 05:36:10;;;;;;;1999.90;999.90;;;7.90;51.40;;;;;;4970939;28;20345;-80
2022/03/24 05:38:36;;;;;;;1999.90;999.90;;;7.90;51.40;;;;;;4970709;28;20078;-80
2022/03/24 05:41:03;;;;;;;1999.90;999.90;;;7.90;51.50;;;;;;4969212;28;20407;-80
2022/03/24 05:43:30;;;;;;;1999.90;999.90;;;7.90;51.50;;;;;;4971876;28;20035;-80
2022/03/24 05:45:56;;;;;;;1999.90;999.90;;;7.90;51.60;;;;;;4972739;28;20031;-80
2022/03/24 05:48:23;;;;;;;1999.90;999.90;;;7.90;51.60;;;;;;4971445;28;20035;-80
2022/03/24 05:50:49;;;;;;;1999.90;999.90;;;7.90;51.60;;;;;;4971399;28;20049;-80
2022/03/24 05:53:16;;;;;;;1999.90;999.90;;;7.90;51.60;;;;;;4970149;28;20031;-80
2022/03/24 05:55:42;;;;;;;1999.90;999.90;;;7.80;51.60;;;;;;4971755;28;20074;-80
2022/03/24 05:58:08;;;;;;;1999.90;999.90;;;7.80;51.70;;;;;;4971629;28;20035;-80
2022/03/24 06:00:36;;;;;;;1999.90;999.90;;;7.80;51.80;;;;;;4971888;28;20019;-80
2022/03/24 06:03:03;;;;;;;1999.90;999.90;;;7.80;51.80;;;;;;4970500;28;20603;-80
2022/03/24 06:05:29;;;;;;;1999.90;999.90;;;7.70;51.90;;;;;;4968632;28;20043;-80
2022/03/24 06:07:57;;;;;;;1999.90;999.90;;;7.70;51.90;;;;;;4969981;28;20031;-80
2022/03/24 06:10:24;;;;;;;1999.90;999.90;;;7.70;52.00;;;;;;4969810;28;20483;-80
2022/03/24 06:12:51;;;;;;;1999.90;999.90;;;7.70;52.00;;;;;;4973016;28;20035;-80
2022/03/24 06:15:17;;;;;;;1999.90;999.90;;;7.70;52.00;;;;;;4970227;28;20035;-80
2022/03/24 06:17:43;;;;;;;1999.90;999.90;;;7.70;52.00;;;;;;4970451;28;20031;-80
2022/03/24 06:20:10;;;;;;;1999.90;999.90;;;7.70;52.00;;;;;;4970436;28;20039;-80
2022/03/24 06:22:50;;;;;;;1999.90;999.90;;;7.70;52.00;;;;;;4957567;28;20031;-80
2022/03/24 06:25:16;;;;;;;1999.90;999.90;;;7.70;52.00;;;;;;4973903;28;20042;-80
2022/03/24 06:27:42;;;;;;;1999.90;999.90;;;7.70;52.00;;;;;;4977078;28;20022;-80
2022/03/24 06:30:09;;;;;;;1999.90;999.90;;;7.70;52.00;;;;;;4974468;28;20069;-80
2022/03/24 06:32:35;;;;;;;1999.90;999.90;;;7.70;52.00;;;;;;4973444;28;20030;-80
2022/03/24 06:35:03;;;;;;;1999.90;999.90;;;7.70;52.00;;;;;;4975245;28;20045;-80
2022/03/24 06:37:29;;;;;;;1999.90;999.90;;;7.80;52.00;;;;;;4975072;28;20025;-80
2022/03/24 06:39:56;;;;;;;1999.90;999.90;;;7.80;52.00;;;;;;4975877;28;20053;-80
2022/03/24 06:42:23;;;;;;;1999.90;999.90;;;7.90;52.00;;;;;;4973253;28;20038;-81
2022/03/24 06:44:49;;;;;;;1999.90;999.90;;;8.00;51.90;;;;;;4973495;28;20489;-85
2022/03/24 06:47:15;;;;;;;1999.90;999.90;;;8.20;51.70;;;;;;4972633;28;20027;-83
2022/03/24 06:49:41;;;;;;;1999.90;999.90;;;8.50;51.30;;;;;;4971732;28;20041;-83
2022/03/24 06:52:08;;;;;;;1999.90;999.90;;;8.80;50.90;;;;;;4974382;28;20039;-81
2022/03/24 06:54:34;;;;;;;1999.90;999.90;;;9.10;50.50;;;;;;4975364;28;20447;-82
2022/03/24 06:57:00;;;;;;;1999.90;999.90;;;9.40;50.30;;;;;;4972960;28;20034;-81
2022/03/24 06:59:27;;;;;;;1999.90;999.90;;;9.60;50.00;;;;;;4973932;28;20042;-84
2022/03/24 07:01:53;;;;;;;1999.90;999.90;;;9.90;49.80;;;;;;4973980;28;20483;-82
2022/03/24 07:04:19;;;;;;;1999.90;999.90;;;10.00;49.60;;;;;;4973415;28;20035;-82
2022/03/24 07:06:45;;;;;;;1999.90;999.90;;;10.20;49.50;;;;;;4976103;28;20035;-83
2022/03/24 07:09:11;;;;;;;1999.90;999.90;;;10.40;49.30;;;;;;4973198;28;20026;-83
2022/03/24 07:11:37;;;;;;;1999.90;999.90;;;10.60;49.20;;;;;;4972946;28;20046;-82
2022/03/24 07:14:03;;;;;;;1999.90;999.90;;;10.70;49.10;;;;;;4954952;28;20050;-83
2022/03/24 07:16:29;;;;;;;1999.90;999.90;;;10.90;48.90;;;;;;4972414;28;20039;-79
2022/03/24 07:18:55;;;;;;;1999.90;999.90;;;11.10;48.90;;;;;;4972929;28;20031;-81
2022/03/24 07:21:22;;;;;;;1999.90;999.90;;;11.20;48.90;;;;;;4974080;28;20033;-80
2022/03/24 07:23:48;;;;;;;1999.90;999.90;;;11.40;48.60;;;;;;4974286;28;20038;-84
2022/03/24 07:26:14;;;;;;;1999.90;999.90;;;11.60;48.50;;;;;;4971681;28;20057;-83
2022/03/24 07:28:41;;;;;;;1999.90;999.90;;;11.70;48.30;;;;;;4971360;28;20475;-82
2022/03/24 07:31:11;;;;;;;1999.90;999.90;;;11.90;48.20;;;;;;4975887;28;20050;-82
2022/03/24 07:33:37;;;;;;;1999.90;999.90;;;12.00;48.20;;;;;;4973021;28;20043;-84
2022/03/24 07:36:04;;;;;;;1999.90;999.90;;;12.10;48.10;;;;;;4971899;28;20039;-84
2022/03/24 07:38:30;;;;;;;1999.90;999.90;;;12.30;48.10;;;;;;4973709;28;20053;-81
2022/03/24 07:40:56;;;;;;;1999.90;999.90;;;12.40;48.00;;;;;;4973540;28;20039;-81
2022/03/24 07:43:22;;;;;;;1999.90;999.90;;;12.50;47.80;;;;;;4972910;28;20038;-81
2022/03/24 07:45:49;;;;;;;1999.90;999.90;;;12.60;47.80;;;;;;4975804;28;20388;-80
2022/03/24 07:48:25;;;;;;;1999.90;999.90;;;12.60;47.80;;;;;;4970479;28;20384;-81
2022/03/24 07:50:55;;;;;;;1999.90;999.90;;;12.60;47.90;;;;;;4971794;28;20051;-81
2022/03/24 07:53:27;;;;;;;1999.90;999.90;;;12.60;48.00;;;;;;4971015;28;20030;-80
2022/03/24 07:55:54;;;;;;;1999.90;999.90;;;12.60;48.10;;;;;;4972267;28;20035;-80
2022/03/24 07:58:21;;;;;;;1999.90;999.90;;;12.60;48.00;;;;;;4971846;28;20039;-81
2022/03/24 08:00:47;;;;;;;1999.90;999.90;;;12.70;47.90;;;;;;4971658;28;20509;-80
2022/03/24 08:03:14;;;;;;;1999.90;999.90;;;12.90;47.80;;;;;;4954680;28;20034;-80
2022/03/24 08:05:41;;;;;;;1999.90;999.90;;;13.10;47.50;;;;;;4971499;28;20495;-82
2022/03/24 08:08:10;;;;;;;1999.90;999.90;;;13.20;47.40;;;;;;4971060;28;20042;-80
2022/03/24 08:10:37;;;;;;;1999.90;999.90;;;13.10;47.40;;;;;;4972304;28;20039;-81
2022/03/24 08:13:04;;;;;;;1999.90;999.90;;;13.20;47.40;;;;;;4972190;28;20044;-83
2022/03/24 08:15:31;;;;;;;1999.90;999.90;;;13.30;47.30;;;;;;4987611;28;20034;-82
2022/03/24 08:17:57;;;;;;;1999.90;999.90;;;13.40;47.20;;;;;;4970758;28;20031;-82
2022/03/24 08:20:23;;;;;;;1999.90;999.90;;;13.60;47.10;;;;;;4970958;28;20039;-85
2022/03/24 08:22:50;;;;;;;1999.90;999.90;;;13.70;46.90;;;;;;4972204;28;20038;-80
2022/03/24 08:25:17;;;;;;;1999.90;999.90;;;13.80;46.80;;;;;;4971986;28;20023;-83
2022/03/24 08:27:43;;;;;;;1999.90;999.90;;;13.80;46.80;;;;;;4973734;28;20037;-81
2022/03/24 08:30:09;;;;;;;1999.90;999.90;;;14.00;46.70;;;;;;4972289;28;20057;-81
2022/03/24 08:32:35;;;;;;;1999.90;999.90;;;14.10;46.60;;;;;;4970467;28;20391;-82
2022/03/24 08:35:02;;;;;;;1999.90;999.90;;;14.30;46.40;;;;;;4972253;28;20042;-81
2022/03/24 08:37:28;;;;;;;1999.90;999.90;;;14.50;46.20;;;;;;4973337;28;20062;-81
2022/03/24 08:39:54;;;;;;;1999.90;999.90;;;14.60;46.00;;;;;;4973389;28;20031;-80
2022/03/24 08:42:21;;;;;;;1999.90;999.90;;;14.70;46.00;;;;;;4971433;28;20027;-81
2022/03/24 08:44:47;;;;;;;1999.90;999.90;;;14.70;46.00;;;;;;4972581;28;20487;-81
2022/03/24 08:47:13;;;;;;;1999.90;999.90;;;14.90;45.80;;;;;;4971478;28;20035;-81
2022/03/24 08:49:39;;;;;;;1999.90;999.90;;;15.10;46.20;;;;;;4971887;28;20037;-81
2022/03/24 08:52:06;;;;;;;1999.90;999.90;;;15.10;45.50;;;;;;4972410;28;20062;-81
2022/03/24 08:54:32;;;;;;;1999.90;999.90;;;15.20;45.50;;;;;;4973519;28;20034;-81
2022/03/24 08:56:58;;;;;;;1999.90;999.90;;;15.30;45.40;;;;;;4972535;28;20027;-81
2022/03/24 08:59:24;;;;;;;1999.90;999.90;;;15.40;45.30;;;;;;4969218;28;20495;-81
2022/03/24 09:01:50;;;;;;;1999.90;999.90;;;15.60;45.20;;;;;;4969534;28;20035;-81
2022/03/24 09:04:18;;;;;;;1999.90;999.90;;;15.70;45.00;;;;;;4972727;28;20043;-81
2022/03/24 09:06:46;;;;;;;1999.90;999.90;;;16.00;44.80;;;;;;4974278;28;20034;-81
2022/03/24 09:09:12;;;;;;;1999.90;999.90;;;16.10;44.60;;;;;;4972500;28;20031;-82
2022/03/24 09:11:38;;;;;;;1999.90;999.90;;;16.20;44.70;;;;;;4971855;28;20043;-81
2022/03/24 09:14:05;;;;;;;1999.90;999.90;;;16.30;44.50;;;;;;4972388;28;20046;-81
2022/03/24 09:16:31;;;;;;;1999.90;999.90;;;16.50;44.30;;;;;;4971413;28;20034;-81
2022/03/24 09:18:57;;;;;;;1999.90;999.90;;;16.50;44.20;;;;;;4971955;28;20039;-81
2022/03/24 09:21:23;;;;;;;1999.90;999.90;;;16.70;44.20;;;;;;4970967;28;20026;-81
2022/03/24 09:23:49;;;;;;;1999.90;999.90;;;17.00;44.00;;;;;;4971229;28;20031;-81
2022/03/24 09:26:15;;;;;;;1999.90;999.90;;;17.20;43.60;;;;;;4971166;28;20035;-81
2022/03/24 09:28:42;;;;;;;1999.90;999.90;;;17.20;43.50;;;;;;4970160;28;20042;-81
2022/03/24 09:31:08;;;;;;;1999.90;999.90;;;17.40;43.40;;;;;;4970864;28;20587;-81
2022/03/24 09:33:36;;;;;;;1999.90;999.90;;;17.50;43.30;;;;;;4973994;28;20047;-81
2022/03/24 09:36:02;;;;;;;1999.90;999.90;;;17.50;43.30;;;;;;4972071;28;20415;-81
2022/03/24 09:38:28;;;;;;;1999.90;999.90;;;17.50;43.30;;;;;;4970945;28;20030;-81
2022/03/24 09:40:55;;;;;;;1999.90;999.90;;;17.40;43.30;;;;;;4969994;28;20134;-85
2022/03/24 09:43:21;;;;;;;1999.90;999.90;;;17.50;43.20;;;;;;4952570;28;20508;-82
2022/03/24 09:45:47;;;;;;;1999.90;999.90;;;17.60;43.20;;;;;;4967724;28;20050;-80
2022/03/24 09:48:15;;;;;;;1999.90;999.90;;;17.60;43.10;;;;;;4965777;28;20046;-81
2022/03/24 09:50:46;;;;;;;1999.90;999.90;;;17.80;43.00;;;;;;4971337;28;20031;-80
2022/03/24 09:53:13;;;;;;;1999.90;999.90;;;17.90;42.80;;;;;;4970237;28;20050;-80
2022/03/24 09:55:40;;;;;;;1999.90;999.90;;;18.00;42.80;;;;;;4970232;28;20049;-81
2022/03/24 09:58:06;;;;;;;1999.90;999.90;;;18.10;42.60;;;;;;4956498;28;20514;-82
2022/03/24 10:00:33;;;;;;;1999.90;999.90;;;18.20;42.50;;;;;;4971019;28;20031;-82
2022/03/24 10:03:14;;;;;;;1999.90;999.90;;;18.30;42.20;;;;;;4969284;28;20475;-82
2022/03/24 10:05:59;;;;;;;1999.90;999.90;;;18.40;42.20;;;;;;4971613;28;20317;-82
2022/03/24 10:08:26;;;;;;;1999.90;999.90;;;18.40;42.20;;;;;;4964200;28;20035;-81
2022/03/24 10:10:59;;;;;;;1999.90;999.90;;;18.60;42.20;;;;;;4969883;28;20037;-80
2022/03/24 10:13:43;;;;;;;1999.90;999.90;;;18.70;41.80;;;;;;4970417;28;20030;-81
2022/03/24 10:16:14;;;;;;;1999.90;999.90;;;18.70;41.80;;;;;;4968051;28;20039;-81
2022/03/24 10:18:57;;;;;;;1999.90;999.90;;;18.70;41.80;;;;;;4976234;28;20403;-82
2022/03/24 10:21:23;;;;;;;1999.90;999.90;;;18.80;41.90;;;;;;4970192;28;20038;-82
2022/03/24 10:23:49;;;;;;;1999.90;999.90;;;18.90;41.60;;;;;;4969945;28;20030;-86
2022/03/24 10:26:15;;;;;;;1999.90;999.90;;;19.10;41.60;;;;;;4969025;28;20034;-84
2022/03/24 10:28:57;;;;;;;1999.90;999.90;;;19.20;41.40;;;;;;4970877;28;20035;-84
2022/03/24 10:31:34;;;;;;;1999.90;999.90;;;19.40;41.30;;;;;;4969966;28;20389;-78
2022/03/24 10:34:00;;;;;;;1999.90;999.90;;;19.50;41.30;;;;;;4968174;28;20050;-83
2022/03/24 10:36:27;;;;;;;1999.90;999.90;;;19.60;41.30;;;;;;4969036;28;20376;-82
2022/03/24 10:38:54;;;;;;;1999.90;999.90;;;19.70;41.20;;;;;;4969618;28;20053;-85
2022/03/24 10:41:26;;;;;;;1999.90;999.90;;;19.70;41.10;;;;;;4968878;28;20053;-84
2022/03/24 10:43:53;;;;;;;1999.90;999.90;;;19.80;41.10;;;;;;4969833;28;20022;-83
2022/03/24 10:46:27;;;;;;;1999.90;999.90;;;19.90;41.00;;;;;;4966877;28;20038;-83
2022/03/24 10:48:53;;;;;;;1999.90;999.90;;;19.90;41.00;;;;;;4969297;28;20027;-82
2022/03/24 10:51:28;;;;;;;1999.90;999.90;;;19.90;41.00;;;;;;4972352;28;20487;-82
2022/03/24 10:53:55;;;;;;;1999.90;999.90;;;19.90;40.80;;;;;;4970588;28;20037;-81
2022/03/24 10:56:27;;;;;;;1999.90;999.90;;;20.00;40.80;;;;;;4967830;28;20472;-81
2022/03/24 10:58:55;;;;;;;1999.90;999.90;;;20.10;40.70;;;;;;4969363;28;20062;-78
2022/03/24 11:01:22;;;;;;;1999.90;999.90;;;20.20;40.50;;;;;;4982918;28;20036;-80
2022/03/24 11:03:48;;;;;;;1999.90;999.90;;;20.30;40.40;;;;;;4971036;28;20062;-80
2022/03/24 11:06:18;;;;;;;1999.90;999.90;;;20.40;40.20;;;;;;4971616;28;20054;-79
2022/03/24 11:08:51;;;;;;;1999.90;999.90;;;20.60;40.20;;;;;;4971279;28;20035;-79
2022/03/24 11:11:17;;;;;;;1999.90;999.90;;;20.70;39.90;;;;;;4970685;28;20659;-77
2022/03/24 11:13:53;;;;;;;1999.90;999.90;;;20.70;39.70;;;;;;4970447;28;20041;-77
2022/03/24 11:16:24;;;;;;;1999.90;999.90;;;20.70;39.60;;;;;;4960339;28;20034;-78
2022/03/24 11:18:51;;;;;;;1999.90;999.90;;;20.70;39.50;;;;;;4973489;28;20046;-77
2022/03/24 11:21:20;;;;;;;1999.90;999.90;;;20.80;39.30;;;;;;4969774;28;20031;-77
2022/03/24 11:23:46;;;;;;;1999.90;999.90;;;20.90;39.20;;;;;;4972187;28;20033;-76
2022/03/24 11:26:12;;;;;;;1999.90;999.90;;;21.00;39.10;;;;;;4968455;28;20050;-77
2022/03/24 11:28:39;;;;;;;1999.90;999.90;;;21.10;39.00;;;;;;4970614;28;20027;-78
2022/03/24 11:31:10;;;;;;;1999.90;999.90;;;21.20;38.90;;;;;;4969538;28;20423;-78
2022/03/24 11:33:43;;;;;;;1999.90;999.90;;;21.20;38.60;;;;;;4972928;28;20038;-78
2022/03/24 11:36:09;;;;;;;1999.90;999.90;;;21.30;38.50;;;;;;4971884;28;20542;-78
2022/03/24 11:38:37;;;;;;;1999.90;999.90;;;21.30;38.30;;;;;;4971070;28;20043;-78
2022/03/24 11:41:05;;;;;;;1999.90;999.90;;;21.30;38.20;;;;;;4970163;28;20054;-78
2022/03/24 11:43:31;;;;;;;1999.90;999.90;;;21.30;38.00;;;;;;4972194;28;20031;-78
2022/03/24 11:46:06;;;;;;;1999.90;999.90;;;21.30;37.80;;;;;;4971595;28;20035;-79
2022/03/24 11:48:40;;;;;;;1999.90;999.90;;;21.40;37.90;;;;;;4971493;28;20464;-81
2022/03/24 11:51:21;;;;;;;1999.90;999.90;;;21.60;37.60;;;;;;4969271;28;20055;-80
2022/03/24 11:54:05;;;;;;;1999.90;999.90;;;21.70;37.50;;;;;;4971675;28;20039;-79
2022/03/24 11:56:32;;;;;;;1999.90;999.90;;;22.00;37.30;;;;;;4970755;28;20518;-80
2022/03/24 11:59:01;;;;;;;1999.90;999.90;;;22.10;37.10;;;;;;4971992;28;20027;-78
2022/03/24 12:01:32;;;;;;;1999.90;999.90;;;22.10;36.60;;;;;;4972310;28;20027;-82
2022/03/24 12:04:08;;;;;;;1999.90;999.90;;;22.10;37.30;;;;;;4973702;28;20603;-81
2022/03/24 12:06:43;;;;;;;1999.90;999.90;;;22.10;36.30;;;;;;4971023;28;20054;-80
2022/03/24 12:09:14;;;;;;;1999.90;999.90;;;22.10;36.50;;;;;;4970391;28;20060;-81
2022/03/24 12:11:47;;;;;;;;;;;22.20;36.00;;;;;;4972101;28;20062;-81